Time;durP1;ratioP1;P1;durP2;ratioP2;P2;SDS_P1;SDS_P2;PMS_P1;PMS_P2;Temp;Humidity;BMP_temperature;BMP_pressure;BME280_temperature;BME280_humidity;BME280_pressure;Samples;Min_cycle;Max_cycle;Signal;HPM_P1;HPM_P2
2022/04/14 00:01:53;;;;;;;;;;;13.00;99.90;;;;;;5093621;28;19963;-50
2022/04/14 00:04:19;;;;;;;;;;;12.90;99.90;;;;;;5083188;28;19977;-50
2022/04/14 00:06:46;;;;;;;;;;;12.80;99.90;;;;;;5095398;28;19928;-49
2022/04/14 00:09:13;;;;;;;;;;;12.80;99.90;;;;;;5093440;28;19924;-51
2022/04/14 00:11:41;;;;;;;;;;;12.70;99.90;;;;;;5094582;28;19927;-47
2022/04/14 00:14:08;;;;;;;;;;;12.70;99.90;;;;;;5093984;28;19924;-47
2022/04/14 00:16:35;;;;;;;;;;;12.60;99.90;;;;;;5090108;28;19936;-47
2022/04/14 00:19:02;;;;;;;;;;;12.60;99.90;;;;;;5090027;28;20546;-51
2022/04/14 00:21:28;;;;;;;;;;;12.60;99.90;;;;;;5092111;28;19924;-47
2022/04/14 00:23:55;;;;;;;;;;;12.50;99.90;;;;;;5090898;28;19924;-48
2022/04/14 00:26:22;;;;;;;;;;;12.50;99.90;;;;;;5087754;28;19928;-47
2022/04/14 00:28:50;;;;;;;;;;;12.50;99.90;;;;;;5087516;28;19924;-47
2022/04/14 00:31:20;;;;;;;;;;;12.40;99.90;;;;;;5093796;28;20067;-47
2022/04/14 00:33:47;;;;;;;;;;;12.40;99.90;;;;;;5093002;28;19928;-48
2022/04/14 00:36:13;;;;;;;;;;;12.40;99.90;;;;;;5089263;28;19924;-47
2022/04/14 00:38:40;;;;;;;;;;;12.40;99.90;;;;;;5085818;28;19928;-47
2022/04/14 00:41:07;;;;;;;;;;;12.30;99.90;;;;;;5093213;28;19925;-47
2022/04/14 00:43:34;;;;;;;;;;;12.40;99.90;;;;;;5093660;28;19932;-47
2022/04/14 00:46:03;;;;;;;;;;;12.40;99.90;;;;;;5093989;28;19928;-47
2022/04/14 00:48:31;;;;;;;;;;;12.40;99.90;;;;;;5093921;28;20416;-47
2022/04/14 00:50:57;;;;;;;;;;;12.40;99.90;;;;;;5093739;28;19932;-47
2022/04/14 00:53:24;;;;;;;;;;;12.40;99.90;;;;;;5083751;28;19986;-48
2022/04/14 00:55:51;;;;;;;;;;;12.30;99.90;;;;;;5082246;28;19954;-47
2022/04/14 00:58:18;;;;;;;;;;;12.30;99.90;;;;;;5091323;28;19924;-47
2022/04/14 01:00:45;;;;;;;;;;;12.30;99.90;;;;;;5093659;28;19978;-47
2022/04/14 01:03:13;;;;;;;;;;;12.30;99.90;;;;;;5093627;28;20471;-47
2022/04/14 01:05:40;;;;;;;;;;;12.50;99.90;;;;;;5081013;28;20390;-47
2022/04/14 01:08:07;;;;;;;;;;;12.60;99.90;;;;;;5082838;28;19935;-48
2022/04/14 01:10:34;;;;;;;;;;;12.60;99.90;;;;;;5093291;28;19969;-47
2022/04/14 01:13:01;;;;;;;;;;;12.60;99.90;;;;;;5092807;28;20401;-50
2022/04/14 01:15:28;;;;;;;;;;;12.50;99.90;;;;;;5090018;28;20360;-50
2022/04/14 01:17:55;;;;;;;;;;;12.70;99.90;;;;;;5094094;28;20355;-50
2022/04/14 01:20:23;;;;;;;;;;;12.60;99.90;;;;;;5092497;28;20476;-50
2022/04/14 01:22:55;;;;;;;;;;;12.60;99.90;;;;;;5093126;28;19974;-50
2022/04/14 01:25:23;;;;;;;;;;;12.50;99.90;;;;;;5093818;28;20378;-51
2022/04/14 01:27:50;;;;;;;;;;;12.60;99.90;;;;;;5090300;28;19970;-50
2022/04/14 01:30:17;;;;;;;;;;;12.50;99.90;;;;;;5100995;28;19934;-50
2022/04/14 01:32:44;;;;;;;;;;;12.50;99.90;;;;;;5104656;28;19928;-50
2022/04/14 01:35:11;;;;;;;;;;;12.40;99.90;;;;;;5093399;28;19928;-52
2022/04/14 01:37:38;;;;;;;;;;;12.50;99.90;;;;;;5089864;28;19932;-50
2022/04/14 01:40:05;;;;;;;;;;;12.50;99.90;;;;;;5081633;28;19939;-51
2022/04/14 01:42:33;;;;;;;;;;;12.40;99.90;;;;;;5088035;28;19924;-50
2022/04/14 01:45:00;;;;;;;;;;;12.40;99.90;;;;;;5092261;28;20385;-51
2022/04/14 01:47:27;;;;;;;;;;;12.30;99.90;;;;;;5088193;28;19964;-49
2022/04/14 01:49:54;;;;;;;;;;;12.40;99.90;;;;;;5092679;28;19924;-50
2022/04/14 01:52:20;;;;;;;;;;;12.60;99.90;;;;;;5092935;28;19928;-50
2022/04/14 01:54:47;;;;;;;;;;;12.70;99.90;;;;;;5088375;28;19936;-50
2022/04/14 01:57:14;;;;;;;;;;;12.80;99.90;;;;;;5077555;28;19928;-50
2022/04/14 01:59:42;;;;;;;;;;;12.60;99.90;;;;;;5087240;28;19925;-49
2022/04/14 02:02:09;;;;;;;;;;;12.60;99.90;;;;;;5091383;28;19977;-50
2022/04/14 02:04:35;;;;;;;;;;;12.70;99.90;;;;;;5089973;28;19924;-49
2022/04/14 02:07:05;;;;;;;;;;;12.80;99.90;;;;;;5073851;28;19978;-50
2022/04/14 02:09:31;;;;;;;;;;;12.70;99.90;;;;;;5085706;28;20019;-50
2022/04/14 02:11:58;;;;;;;;;;;12.70;99.90;;;;;;5087126;28;19924;-51
2022/04/14 02:14:25;;;;;;;;;;;12.60;99.90;;;;;;5083688;28;19924;-50
2022/04/14 02:16:54;;;;;;;;;;;12.50;99.90;;;;;;5091062;28;19932;-51
2022/04/14 02:19:21;;;;;;;;;;;12.40;99.90;;;;;;5086934;28;20308;-50
2022/04/14 02:21:48;;;;;;;;;;;12.40;99.90;;;;;;5087709;28;19928;-50
2022/04/14 02:24:14;;;;;;;;;;;12.40;99.90;;;;;;5088902;28;19924;-50
2022/04/14 02:26:41;;;;;;;;;;;12.30;99.90;;;;;;5088038;28;19989;-50
2022/04/14 02:29:08;;;;;;;;;;;12.50;99.90;;;;;;5088643;28;19928;-50
2022/04/14 02:31:35;;;;;;;;;;;12.50;99.90;;;;;;5090869;28;19985;-51
2022/04/14 02:34:03;;;;;;;;;;;12.60;99.90;;;;;;5089380;28;19973;-49
2022/04/14 02:36:31;;;;;;;;;;;12.50;99.90;;;;;;5088924;28;19974;-50
2022/04/14 02:38:57;;;;;;;;;;;12.40;99.90;;;;;;5073387;28;19929;-49
2022/04/14 02:41:24;;;;;;;;;;;12.10;99.90;;;;;;5089521;28;19924;-50
2022/04/14 02:43:51;;;;;;;;;;;11.80;99.90;;;;;;5086486;28;20033;-50
2022/04/14 02:46:18;;;;;;;;;;;11.90;99.90;;;;;;5090227;28;19928;-50
2022/04/14 02:48:44;;;;;;;;;;;11.90;99.90;;;;;;5084026;28;20275;-51
2022/04/14 02:51:15;;;;;;;;;;;11.80;99.90;;;;;;5087728;28;19978;-50
2022/04/14 02:53:42;;;;;;;;;;;11.80;99.90;;;;;;5091152;28;20461;-49
2022/04/14 02:56:09;;;;;;;;;;;11.70;99.90;;;;;;5077448;28;19925;-49
2022/04/14 02:58:37;;;;;;;;;;;11.80;99.90;;;;;;5072014;28;19924;-50
2022/04/14 03:01:04;;;;;;;;;;;11.60;99.90;;;;;;5085794;28;19985;-52
2022/04/14 03:03:30;;;;;;;;;;;11.40;99.90;;;;;;5082530;28;20344;-49
2022/04/14 03:05:57;;;;;;;;;;;11.30;99.90;;;;;;5079144;28;19983;-51
2022/04/14 03:08:25;;;;;;;;;;;11.20;99.90;;;;;;5074900;28;19993;-50
2022/04/14 03:10:53;;;;;;;;;;;11.10;99.90;;;;;;5079723;28;19924;-50
2022/04/14 03:13:20;;;;;;;;;;;11.00;99.90;;;;;;5071825;28;19924;-50
2022/04/14 03:15:49;;;;;;;;;;;10.90;99.90;;;;;;5090419;28;19928;-50
2022/04/14 03:18:15;;;;;;;;;;;10.90;99.90;;;;;;5091904;28;19924;-50
2022/04/14 03:20:42;;;;;;;;;;;10.80;99.90;;;;;;5091512;28;19969;-50
2022/04/14 03:23:09;;;;;;;;;;;10.90;99.90;;;;;;5093997;28;19925;-50
2022/04/14 03:25:37;;;;;;;;;;;10.90;99.90;;;;;;5095559;28;19979;-50
2022/04/14 03:28:04;;;;;;;;;;;10.90;99.90;;;;;;5096034;28;19924;-50
2022/04/14 03:30:30;;;;;;;;;;;10.90;99.90;;;;;;5095679;28;19924;-50
2022/04/14 03:32:57;;;;;;;;;;;10.90;99.90;;;;;;5094032;28;19932;-51
2022/04/14 03:35:24;;;;;;;;;;;10.90;99.90;;;;;;5092879;28;20404;-50
2022/04/14 03:37:51;;;;;;;;;;;10.80;99.90;;;;;;5083890;28;19924;-49
2022/04/14 03:40:18;;;;;;;;;;;10.70;99.90;;;;;;5091342;28;19990;-51
2022/04/14 03:42:46;;;;;;;;;;;10.70;99.90;;;;;;5116218;22;19930;-59
2022/04/14 03:45:12;;;;;;;;;;;10.80;99.90;;;;;;5081558;28;19928;-59
2022/04/14 03:47:39;;;;;;;;;;;10.70;99.90;;;;;;5079354;28;19947;-59
2022/04/14 03:50:06;;;;;;;;;;;10.90;99.90;;;;;;5079132;28;20283;-59
2022/04/14 03:52:33;;;;;;;;;;;11.00;99.90;;;;;;5082258;28;19969;-59
2022/04/14 03:55:00;;;;;;;;;;;10.80;99.90;;;;;;5083796;28;20072;-60
2022/04/14 03:57:27;;;;;;;;;;;10.70;99.90;;;;;;5080574;28;19924;-59
2022/04/14 03:59:55;;;;;;;;;;;10.80;99.90;;;;;;5080675;28;20275;-59
2022/04/14 04:02:21;;;;;;;;;;;10.90;99.90;;;;;;5078343;28;20028;-59
2022/04/14 04:04:48;;;;;;;;;;;11.10;99.90;;;;;;5080216;28;19932;-60
2022/04/14 04:07:15;;;;;;;;;;;10.90;99.90;;;;;;5079707;28;19998;-59
2022/04/14 04:09:42;;;;;;;;;;;11.00;99.90;;;;;;5090514;28;19931;-60
2022/04/14 04:12:09;;;;;;;;;;;11.00;99.90;;;;;;5076817;28;19924;-59
2022/04/14 04:14:36;;;;;;;;;;;11.10;99.90;;;;;;5076438;28;19936;-59
2022/04/14 04:17:05;;;;;;;;;;;10.90;99.90;;;;;;5077675;28;19924;-59
2022/04/14 04:19:32;;;;;;;;;;;10.60;99.90;;;;;;5074367;28;19947;-59
2022/04/14 04:21:59;;;;;;;;;;;10.50;99.90;;;;;;5092015;28;20431;-60
2022/04/14 04:24:25;;;;;;;;;;;10.40;99.90;;;;;;5092288;28;19924;-60
2022/04/14 04:26:52;;;;;;;;;;;10.30;99.90;;;;;;5090782;28;20064;-59
2022/04/14 04:29:19;;;;;;;;;;;10.30;99.90;;;;;;5082046;28;20073;-59
2022/04/14 04:31:46;;;;;;;;;;;10.20;99.90;;;;;;5078975;28;19924;-59
2022/04/14 04:34:14;;;;;;;;;;;10.20;99.90;;;;;;5085405;28;19954;-60
2022/04/14 04:36:40;;;;;;;;;;;10.10;99.90;;;;;;5079018;28;20386;-61
2022/04/14 04:39:07;;;;;;;;;;;10.20;99.90;;;;;;5081899;28;19924;-59
2022/04/14 04:41:34;;;;;;;;;;;10.10;99.90;;;;;;5078576;28;20045;-59
2022/04/14 04:44:01;;;;;;;;;;;10.10;99.90;;;;;;5077937;28;19986;-61
2022/04/14 04:46:27;;;;;;;;;;;10.10;99.90;;;;;;5077159;28;19924;-60
2022/04/14 04:48:54;;;;;;;;;;;10.20;99.90;;;;;;5078342;28;20275;-59
2022/04/14 04:51:22;;;;;;;;;;;10.20;99.90;;;;;;5081305;28;19924;-59
2022/04/14 04:53:49;;;;;;;;;;;10.30;99.90;;;;;;5080567;28;19989;-61
2022/04/14 04:56:17;;;;;;;;;;;10.40;99.90;;;;;;5077734;28;19925;-60
2022/04/14 04:58:44;;;;;;;;;;;10.50;99.90;;;;;;5086003;28;19931;-59
2022/04/14 05:01:12;;;;;;;;;;;10.60;99.90;;;;;;5075157;28;19978;-59
2022/04/14 05:03:38;;;;;;;;;;;10.70;99.90;;;;;;5077341;28;19963;-60
2022/04/14 05:06:05;;;;;;;;;;;10.90;99.90;;;;;;5080859;28;19989;-59
2022/04/14 05:08:33;;;;;;;;;;;11.10;99.90;;;;;;5074417;28;19943;-60
2022/04/14 05:11:00;;;;;;;;;;;11.30;99.90;;;;;;5075690;28;19955;-61
2022/04/14 05:13:27;;;;;;;;;;;11.50;99.90;;;;;;5080164;28;19997;-58
2022/04/14 05:15:53;;;;;;;;;;;11.70;99.90;;;;;;5076077;28;19932;-59
2022/04/14 05:18:20;;;;;;;;;;;12.00;99.90;;;;;;5081608;28;20310;-59
2022/04/14 05:20:47;;;;;;;;;;;12.30;99.90;;;;;;5082279;28;19973;-59
2022/04/14 05:23:14;;;;;;;;;;;12.60;99.90;;;;;;5076669;28;19932;-59
2022/04/14 05:25:43;;;;;;;;;;;12.80;99.90;;;;;;5082097;28;19936;-59
2022/04/14 05:28:09;;;;;;;;;;;13.00;99.90;;;;;;5081079;28;20412;-59
2022/04/14 05:30:36;;;;;;;;;;;13.20;99.90;;;;;;5084467;28;19924;-60
2022/04/14 05:33:05;;;;;;;;;;;13.50;99.90;;;;;;5071398;28;19967;-59
2022/04/14 05:35:32;;;;;;;;;;;14.30;99.90;;;;;;5071332;28;20028;-61
2022/04/14 05:37:59;;;;;;;;;;;15.50;99.90;;;;;;5090281;28;20415;-60
2022/04/14 05:40:25;;;;;;;;;;;17.10;99.90;;;;;;5082722;28;19989;-59
2022/04/14 05:42:54;;;;;;;;;;;18.60;99.90;;;;;;5081527;28;19981;-61
2022/04/14 05:45:21;;;;;;;;;;;19.90;99.90;;;;;;5080999;28;19924;-61
2022/04/14 05:47:48;;;;;;;;;;;20.70;99.90;;;;;;5072941;28;20654;-60
2022/04/14 05:50:15;;;;;;;;;;;22.10;99.90;;;;;;5075128;28;19975;-59
2022/04/14 05:52:42;;;;;;;;;;;23.50;99.90;;;;;;5078721;28;20326;-61
2022/04/14 05:55:09;;;;;;;;;;;24.50;99.90;;;;;;5077545;28;20455;-61
2022/04/14 05:57:36;;;;;;;;;;;25.00;99.90;;;;;;5074426;28;19969;-60
2022/04/14 06:00:06;;;;;;;;;;;25.30;98.80;;;;;;5073192;28;20386;-61
2022/04/14 06:02:33;;;;;;;;;;;25.70;96.70;;;;;;5074027;28;19931;-61
2022/04/14 06:05:00;;;;;;;;;;;26.40;94.80;;;;;;5073465;28;19928;-61
2022/04/14 06:07:26;;;;;;;;;;;26.90;93.40;;;;;;5076891;28;19932;-61
2022/04/14 06:09:53;;;;;;;;;;;27.00;92.40;;;;;;5079830;28;19925;-61
2022/04/14 06:12:20;;;;;;;;;;;26.80;91.70;;;;;;5071452;28;19970;-60
2022/04/14 06:14:47;;;;;;;;;;;26.10;92.00;;;;;;5074658;28;19990;-62
2022/04/14 06:17:15;;;;;;;;;;;26.40;92.20;;;;;;5075125;28;19954;-60
2022/04/14 06:19:42;;;;;;;;;;;26.00;91.60;;;;;;5072887;28;20356;-60
2022/04/14 06:22:09;;;;;;;;;;;26.50;90.50;;;;;;5074070;28;20000;-60
2022/04/14 06:24:35;;;;;;;;;;;27.30;90.40;;;;;;5083348;28;20270;-60
2022/04/14 06:27:02;;;;;;;;;;;28.20;86.30;;;;;;5086475;28;19932;-60
2022/04/14 06:29:29;;;;;;;;;;;29.00;82.70;;;;;;5076320;28;19925;-61
2022/04/14 06:31:56;;;;;;;;;;;29.20;80.80;;;;;;5078823;28;19924;-59
2022/04/14 06:34:24;;;;;;;;;;;29.70;77.70;;;;;;5082376;28;20386;-60
2022/04/14 06:36:51;;;;;;;;;;;30.50;74.50;;;;;;5071349;28;19936;-61
2022/04/14 06:39:18;;;;;;;;;;;30.70;74.40;;;;;;5075975;28;19931;-61
2022/04/14 06:41:45;;;;;;;;;;;31.80;70.80;;;;;;5079414;28;19970;-61
2022/04/14 06:44:12;;;;;;;;;;;32.20;69.10;;;;;;5074694;28;19924;-61
2022/04/14 06:46:42;;;;;;;;;;;32.70;66.90;;;;;;5078619;28;19969;-60
2022/04/14 06:49:09;;;;;;;;;;;32.80;65.00;;;;;;5075424;28;20392;-61
2022/04/14 06:51:37;;;;;;;;;;;33.50;62.30;;;;;;5081985;28;19990;-61
2022/04/14 06:54:04;;;;;;;;;;;33.70;61.90;;;;;;5074979;28;20015;-61
2022/04/14 06:56:31;;;;;;;;;;;32.90;62.80;;;;;;5085106;28;19995;-60
2022/04/14 06:58:58;;;;;;;;;;;32.70;62.30;;;;;;5088771;28;19924;-61
2022/04/14 07:01:25;;;;;;;;;;;32.30;62.40;;;;;;5079538;28;20018;-60
2022/04/14 07:03:52;;;;;;;;;;;31.70;62.00;;;;;;5085504;28;20049;-60
2022/04/14 07:06:19;;;;;;;;;;;32.00;61.10;;;;;;5083322;28;19925;-61
2022/04/14 07:08:48;;;;;;;;;;;31.90;60.00;;;;;;5077117;28;20372;-61
2022/04/14 07:11:16;;;;;;;;;;;32.60;59.90;;;;;;5076123;28;19932;-62
2022/04/14 07:13:43;;;;;;;;;;;32.30;61.40;;;;;;5076067;28;19936;-61
2022/04/14 07:16:09;;;;;;;;;;;32.60;59.60;;;;;;5070547;28;19994;-61
2022/04/14 07:18:36;;;;;;;;;;;32.60;58.50;;;;;;5089155;28;19967;-61
2022/04/14 07:21:05;;;;;;;;;;;32.60;57.40;;;;;;5075798;28;19962;-61
2022/04/14 07:23:32;;;;;;;;;;;32.30;58.00;;;;;;5071078;28;20012;-61
2022/04/14 07:26:00;;;;;;;;;;;33.10;59.10;;;;;;5078555;28;19986;-62
2022/04/14 07:28:27;;;;;;;;;;;33.80;55.60;;;;;;5076749;28;19932;-61
2022/04/14 07:30:54;;;;;;;;;;;34.70;55.50;;;;;;5074354;28;19939;-60
2022/04/14 07:33:20;;;;;;;;;;;35.30;55.80;;;;;;5090442;28;19932;-60
2022/04/14 07:35:50;;;;;;;;;;;35.30;54.80;;;;;;5090320;28;19989;-61
2022/04/14 07:38:17;;;;;;;;;;;34.50;54.70;;;;;;5090284;28;19924;-61
2022/04/14 07:40:43;;;;;;;;;;;35.00;55.40;;;;;;5090532;28;20024;-61
2022/04/14 07:43:12;;;;;;;;;;;35.40;54.10;;;;;;5089902;28;19924;-61
2022/04/14 07:45:39;;;;;;;;;;;34.50;55.00;;;;;;5090658;28;19928;-60
2022/04/14 07:48:07;;;;;;;;;;;34.80;54.10;;;;;;5088051;28;20315;-62
2022/04/14 07:50:33;;;;;;;;;;;34.70;53.60;;;;;;5090613;28;19924;-61
2022/04/14 07:53:00;;;;;;;;;;;34.10;52.40;;;;;;5090285;28;20021;-62
2022/04/14 07:55:28;;;;;;;;;;;34.60;54.90;;;;;;5090169;28;20022;-62
2022/04/14 07:57:55;;;;;;;;;;;34.70;55.10;;;;;;5088878;28;19924;-61
2022/04/14 08:00:24;;;;;;;;;;;35.00;52.10;;;;;;5090494;28;19928;-61
2022/04/14 08:02:54;;;;;;;;;;;35.30;52.30;;;;;;5088965;28;19977;-61
2022/04/14 08:05:22;;;;;;;;;;;34.20;53.20;;;;;;5090387;28;20292;-62
2022/04/14 08:07:48;;;;;;;;;;;34.40;53.80;;;;;;5083692;28;20066;-61
2022/04/14 08:10:16;;;;;;;;;;;34.70;53.30;;;;;;5077542;28;20552;-61
2022/04/14 08:12:42;;;;;;;;;;;35.30;52.20;;;;;;5073681;28;19972;-60
2022/04/14 08:15:10;;;;;;;;;;;36.00;51.60;;;;;;5073893;28;19928;-62
2022/04/14 08:17:40;;;;;;;;;;;36.50;52.70;;;;;;5073784;28;20019;-61
2022/04/14 08:20:07;;;;;;;;;;;36.10;49.00;;;;;;5073802;28;19978;-61
2022/04/14 08:22:44;;;;;;;;;;;36.20;49.60;;;;;;5073486;28;19924;-62
2022/04/14 08:25:11;;;;;;;;;;;35.50;50.60;;;;;;5074581;28;19928;-62
2022/04/14 08:27:38;;;;;;;;;;;35.50;52.70;;;;;;5073854;28;19924;-62
2022/04/14 08:30:05;;;;;;;;;;;34.90;52.90;;;;;;5074441;28;19932;-61
2022/04/14 08:32:34;;;;;;;;;;;35.70;53.80;;;;;;5073095;28;20617;-61
2022/04/14 08:35:02;;;;;;;;;;;36.20;51.30;;;;;;5073312;28;19924;-61
2022/04/14 08:37:29;;;;;;;;;;;36.30;50.10;;;;;;5073064;28;19997;-61
2022/04/14 08:39:56;;;;;;;;;;;36.20;51.30;;;;;;5073538;28;19924;-61
2022/04/14 08:42:26;;;;;;;;;;;34.90;51.40;;;;;;5073156;28;19924;-61
2022/04/14 08:45:03;;;;;;;;;;;34.30;53.00;;;;;;5082923;28;19928;-61
2022/04/14 08:47:30;;;;;;;;;;;34.30;50.70;;;;;;5092162;28;20022;-61
2022/04/14 08:49:57;;;;;;;;;;;33.60;50.50;;;;;;5078688;28;20296;-62
2022/04/14 08:52:26;;;;;;;;;;;33.50;50.30;;;;;;5072960;28;20224;-61
2022/04/14 08:54:54;;;;;;;;;;;34.30;52.50;;;;;;5081171;28;19932;-62
2022/04/14 08:57:21;;;;;;;;;;;34.50;52.60;;;;;;5080477;28;19924;-62
2022/04/14 08:59:49;;;;;;;;;;;33.00;53.10;;;;;;5080741;28;20331;-61
2022/04/14 09:02:18;;;;;;;;;;;32.50;52.10;;;;;;5076311;28;20279;-62
2022/04/14 09:04:45;;;;;;;;;;;32.80;53.30;;;;;;5077293;28;20014;-61
2022/04/14 09:07:12;;;;;;;;;;;33.30;53.80;;;;;;5071512;28;19924;-62
2022/04/14 09:09:41;;;;;;;;;;;33.80;52.00;;;;;;5074509;28;19928;-61
2022/04/14 09:12:08;;;;;;;;;;;34.30;51.50;;;;;;5085172;28;19925;-61
2022/04/14 09:14:35;;;;;;;;;;;34.60;51.00;;;;;;5073912;28;19932;-61
2022/04/14 09:17:02;;;;;;;;;;;34.70;51.10;;;;;;5086690;28;19924;-62
2022/04/14 09:19:29;;;;;;;;;;;34.20;51.80;;;;;;5090567;28;19934;-61
2022/04/14 09:21:59;;;;;;;;;;;34.30;50.40;;;;;;5091353;28;19932;-62
2022/04/14 09:24:47;;;;;;;;;;;34.40;50.60;;;;;;5091698;28;19924;-62
2022/04/14 09:27:31;;;;;;;;;;;32.70;51.60;;;;;;5091606;28;19930;-62
2022/04/14 09:29:59;;;;;;;;;;;32.70;52.20;;;;;;5080523;28;19924;-62
2022/04/14 09:32:31;;;;;;;;;;;33.00;55.20;;;;;;5091311;28;20320;-61
2022/04/14 09:34:58;;;;;;;;;;;34.20;53.90;;;;;;5091673;28;19924;-61
2022/04/14 09:37:26;;;;;;;;;;;34.10;54.20;;;;;;5091091;28;19925;-61
2022/04/14 09:39:55;;;;;;;;;;;34.10;54.40;;;;;;5090101;28;19924;-62
2022/04/14 09:42:22;;;;;;;;;;;34.20;55.90;;;;;;5098035;22;19974;-51
2022/04/14 09:44:50;;;;;;;;;;;33.00;56.10;;;;;;5092503;28;19935;-50
2022/04/14 09:47:24;;;;;;;;;;;32.30;56.70;;;;;;5095511;28;19930;-50
2022/04/14 09:49:51;;;;;;;;;;;31.70;58.50;;;;;;5104413;28;19924;-50
2022/04/14 09:52:17;;;;;;;;;;;30.40;60.10;;;;;;5112277;28;19923;-50
2022/04/14 09:54:45;;;;;;;;;;;29.10;63.30;;;;;;5112612;28;19954;-49
2022/04/14 09:57:18;;;;;;;;;;;28.40;62.30;;;;;;5113536;28;19924;-49
2022/04/14 09:59:44;;;;;;;;;;;27.50;63.80;;;;;;5107080;28;19969;-48
2022/04/14 10:02:12;;;;;;;;;;;26.20;65.20;;;;;;5110846;28;20317;-49
2022/04/14 10:04:39;;;;;;;;;;;26.80;65.00;;;;;;5096569;28;19928;-48
2022/04/14 10:07:07;;;;;;;;;;;27.00;66.00;;;;;;5093045;28;19924;-48
2022/04/14 10:09:35;;;;;;;;;;;27.90;63.90;;;;;;5096515;28;19924;-48
2022/04/14 10:12:02;;;;;;;;;;;28.10;63.20;;;;;;5092718;28;20555;-49
2022/04/14 10:14:30;;;;;;;;;;;28.70;62.60;;;;;;5085321;28;20348;-50
2022/04/14 10:17:02;;;;;;;;;;;29.10;61.20;;;;;;5072700;28;20298;-50
2022/04/14 10:19:30;;;;;;;;;;;30.00;60.50;;;;;;5072537;28;19928;-49
2022/04/14 10:21:57;;;;;;;;;;;30.70;57.90;;;;;;5072178;28;20579;-49
2022/04/14 10:24:25;;;;;;;;;;;28.80;59.60;;;;;;5075153;28;19958;-49
2022/04/14 10:26:53;;;;;;;;;;;27.80;62.30;;;;;;5091248;28;20483;-48
2022/04/14 10:29:21;;;;;;;;;;;28.50;63.60;;;;;;5091025;28;19924;-49
2022/04/14 10:31:53;;;;;;;;;;;29.40;59.70;;;;;;5091147;28;20036;-49
2022/04/14 10:34:22;;;;;;;;;;;30.00;59.40;;;;;;5091194;28;19924;-49
2022/04/14 10:36:49;;;;;;;;;;;29.00;59.90;;;;;;5090861;28;20423;-49
2022/04/14 10:39:17;;;;;;;;;;;29.10;60.20;;;;;;5090869;28;19924;-50
2022/04/14 10:41:46;;;;;;;;;;;29.00;60.80;;;;;;5091090;28;19928;-49
2022/04/14 10:44:13;;;;;;;;;;;29.60;59.30;;;;;;5090522;28;19973;-50
2022/04/14 10:46:41;;;;;;;;;;;30.40;60.00;;;;;;5088206;28;19952;-49
2022/04/14 10:49:12;;;;;;;;;;;29.40;60.50;;;;;;5090711;28;19932;-49
2022/04/14 10:51:39;;;;;;;;;;;28.40;64.30;;;;;;5090841;28;20461;-49
2022/04/14 10:54:07;;;;;;;;;;;26.90;64.70;;;;;;5090714;28;19928;-49
2022/04/14 10:56:43;;;;;;;;;;;24.80;72.80;;;;;;5090886;28;19964;-51
2022/04/14 10:59:11;;;;;;;;;;;24.50;72.50;;;;;;5090635;28;19925;-49
2022/04/14 11:01:52;;;;;;;;;;;24.40;72.70;;;;;;5089509;28;19954;-48
2022/04/14 11:04:32;;;;;;;;;;;24.70;73.50;;;;;;5090274;28;19928;-49
2022/04/14 11:07:01;;;;;;;;;;;24.40;74.60;;;;;;5090536;28;20298;-48
2022/04/14 11:10:01;;;;;;;;;;;24.10;73.00;;;;;;5090346;28;19935;-49
2022/04/14 11:12:29;;;;;;;;;;;24.20;74.40;;;;;;5090273;28;20416;-49
2022/04/14 11:14:57;;;;;;;;;;;24.40;74.40;;;;;;5090372;28;19924;-50
2022/04/14 11:17:47;;;;;;;;;;;24.40;72.50;;;;;;5089937;28;20348;-51
2022/04/14 11:20:17;;;;;;;;;;;23.80;74.90;;;;;;5090519;28;19940;-51
2022/04/14 11:23:02;;;;;;;;;;;23.90;76.30;;;;;;5091246;28;20011;-49
2022/04/14 11:25:47;;;;;;;;;;;24.10;75.20;;;;;;5090704;28;19924;-49
2022/04/14 11:28:24;;;;;;;;;;;24.50;75.00;;;;;;5091051;28;20466;-51
2022/04/14 11:30:51;;;;;;;;;;;24.30;75.50;;;;;;5089983;28;19928;-52
2022/04/14 11:33:27;;;;;;;;;;;24.70;73.50;;;;;;5090424;28;20396;-52
2022/04/14 11:36:06;;;;;;;;;;;24.80;75.80;;;;;;5091285;28;19924;-51
2022/04/14 11:38:51;;;;;;;;;;;24.80;75.90;;;;;;5091363;28;19928;-50
2022/04/14 11:41:28;;;;;;;;;;;24.80;74.90;;;;;;5091096;28;19924;-51
2022/04/14 11:43:55;;;;;;;;;;;24.70;75.50;;;;;;5094095;28;20439;-50
2022/04/14 11:46:22;;;;;;;;;;;24.30;75.90;;;;;;5095658;28;19924;-50
2022/04/14 11:48:49;;;;;;;;;;;24.00;75.30;;;;;;5095326;28;19924;-50
2022/04/14 11:51:18;;;;;;;;;;;23.80;76.10;;;;;;5095353;28;19930;-50
2022/04/14 11:53:44;;;;;;;;;;;23.70;77.20;;;;;;5095393;28;20389;-51
2022/04/14 11:56:15;;;;;;;;;;;23.80;79.90;;;;;;5095572;28;19924;-50
2022/04/14 11:58:42;;;;;;;;;;;22.90;78.70;;;;;;5095660;28;19924;-50
2022/04/14 12:01:09;;;;;;;;;;;22.80;80.10;;;;;;5094806;28;19932;-52
2022/04/14 12:03:36;;;;;;;;;;;22.80;81.70;;;;;;5094053;28;19994;-50
2022/04/14 12:06:04;;;;;;;;;;;23.40;81.10;;;;;;5095590;28;20451;-50
2022/04/14 12:08:32;;;;;;;;;;;23.50;77.80;;;;;;5095168;28;19970;-49
2022/04/14 12:11:02;;;;;;;;;;;23.40;77.60;;;;;;5095236;28;20477;-50
2022/04/14 12:13:28;;;;;;;;;;;23.40;78.40;;;;;;5102016;28;20048;-50
2022/04/14 12:16:02;;;;;;;;;;;23.60;79.70;;;;;;5108061;28;20431;-51
2022/04/14 12:18:29;;;;;;;;;;;23.50;78.60;;;;;;5094704;28;20006;-50
2022/04/14 12:20:55;;;;;;;;;;;23.20;80.50;;;;;;5094895;28;19924;-50
2022/04/14 12:23:22;;;;;;;;;;;22.50;82.40;;;;;;5094653;28;19924;-49
2022/04/14 12:25:51;;;;;;;;;;;22.60;82.10;;;;;;5094973;28;19970;-49
2022/04/14 12:28:18;;;;;;;;;;;22.40;78.20;;;;;;5094997;28;19947;-50
2022/04/14 12:30:44;;;;;;;;;;;22.10;79.70;;;;;;5094972;28;20435;-49
2022/04/14 12:33:11;;;;;;;;;;;22.10;81.80;;;;;;5094237;28;19931;-49
2022/04/14 12:35:39;;;;;;;;;;;22.10;81.80;;;;;;5094283;28;19924;-50
2022/04/14 12:38:12;;;;;;;;;;;22.60;82.30;;;;;;5094977;28;20384;-52
2022/04/14 12:40:39;;;;;;;;;;;23.00;78.00;;;;;;5094868;28;19932;-50
2022/04/14 12:43:07;;;;;;;;;;;22.70;79.90;;;;;;5094168;28;19980;-49
2022/04/14 12:45:37;;;;;;;;;;;22.80;77.60;;;;;;5094558;28;19928;-51
2022/04/14 12:48:05;;;;;;;;;;;22.90;80.00;;;;;;5095588;28;19991;-51
2022/04/14 12:50:32;;;;;;;;;;;23.00;79.30;;;;;;5094927;28;19978;-49
2022/04/14 12:52:59;;;;;;;;;;;22.90;78.80;;;;;;5094835;28;19924;-51
2022/04/14 12:55:26;;;;;;;;;;;23.00;79.70;;;;;;5095857;28;19978;-51
2022/04/14 13:00:47;;;;;;;;;;;23.50;76.30;;;;;;5118370;27;19916;-50
2022/04/14 13:03:19;;;;;;;;;;;23.30;78.00;;;;;;5109117;28;19924;-50
2022/04/14 13:05:45;;;;;;;;;;;23.10;79.60;;;;;;5096635;28;19928;-49
2022/04/14 13:08:13;;;;;;;;;;;22.80;81.40;;;;;;5109954;28;19985;-50
2022/04/14 13:10:41;;;;;;;;;;;22.70;81.60;;;;;;5109649;28;19931;-51
2022/04/14 13:13:09;;;;;;;;;;;22.60;83.00;;;;;;5109316;28;19981;-51
2022/04/14 13:15:37;;;;;;;;;;;22.90;84.70;;;;;;5109010;28;19924;-48
2022/04/14 13:18:05;;;;;;;;;;;23.20;80.90;;;;;;5103208;28;19924;-49
2022/04/14 13:20:33;;;;;;;;;;;23.00;77.50;;;;;;5106280;28;20008;-48
2022/04/14 13:23:00;;;;;;;;;;;22.70;80.00;;;;;;5109084;28;19924;-50
2022/04/14 13:25:27;;;;;;;;;;;22.40;79.80;;;;;;5109499;28;19924;-51
2022/04/14 13:27:53;;;;;;;;;;;22.60;81.50;;;;;;5109762;28;19924;-49
2022/04/14 13:30:21;;;;;;;;;;;22.60;80.50;;;;;;5104535;28;19925;-50
2022/04/14 13:32:48;;;;;;;;;;;22.50;81.40;;;;;;5107619;28;19924;-49
2022/04/14 13:35:16;;;;;;;;;;;22.60;80.20;;;;;;5103902;28;19924;-49
2022/04/14 13:37:43;;;;;;;;;;;22.60;81.60;;;;;;5108043;28;19932;-50
2022/04/14 13:40:12;;;;;;;;;;;22.50;77.90;;;;;;5107762;28;19974;-49
2022/04/14 13:42:39;;;;;;;;;;;22.30;78.50;;;;;;5107715;28;19928;-50
2022/04/14 13:45:08;;;;;;;;;;;22.20;77.50;;;;;;5107802;28;19924;-50
2022/04/14 13:47:35;;;;;;;;;;;22.10;76.90;;;;;;5105031;28;19981;-48
2022/04/14 13:50:01;;;;;;;;;;;22.20;75.60;;;;;;5107439;28;20438;-49
2022/04/14 13:52:29;;;;;;;;;;;22.40;77.50;;;;;;5107061;28;19928;-49
2022/04/14 13:54:56;;;;;;;;;;;22.40;76.70;;;;;;5107858;28;19993;-49
2022/04/14 13:57:23;;;;;;;;;;;22.50;74.70;;;;;;5107647;28;19939;-48
2022/04/14 13:59:50;;;;;;;;;;;22.40;76.70;;;;;;5107433;28;19981;-49
2022/04/14 14:02:17;;;;;;;;;;;22.30;76.40;;;;;;5104596;28;19924;-50
2022/04/14 14:04:44;;;;;;;;;;;22.20;76.80;;;;;;5107051;28;19928;-50
2022/04/14 14:07:10;;;;;;;;;;;22.40;76.90;;;;;;5107148;28;19959;-49
2022/04/14 14:09:38;;;;;;;;;;;22.70;76.90;;;;;;5107416;28;19924;-50
2022/04/14 14:12:05;;;;;;;;;;;22.70;75.50;;;;;;5093591;28;19924;-50
2022/04/14 14:14:32;;;;;;;;;;;22.90;76.80;;;;;;5093493;28;20023;-50
2022/04/14 14:16:59;;;;;;;;;;;23.00;76.10;;;;;;5084985;28;20610;-50
2022/04/14 14:19:26;;;;;;;;;;;23.20;77.90;;;;;;5089158;28;19924;-51
2022/04/14 14:21:53;;;;;;;;;;;23.20;74.80;;;;;;5094236;28;19969;-51
2022/04/14 14:24:19;;;;;;;;;;;23.00;74.30;;;;;;5090092;28;19989;-49